Terminal Aerodrome Forecast
Issued by NWS

Home | Current Version | Previous Version | Text Only | Print | Product List | Glossary Off
Versions: 1 2 3 4 5 6 7 8 9 10 11 12 13 14 15 16 17 18

000
FTUS43 KGRB 241100
TAFATW
TAF
KATW 241120Z 2412/2512 VRB03KT P6SM SCT060
      TEMPO 2412/2416 BKN060
     FM241600 24004KT P6SM SCT050
     FM242300 18006KT P6SM SCT090=

USA.gov is the U.S. government's official web portal to all federal, state and local government web resources and services.